createdAt,value
2022-10-11T00:02:29.304Z,20.10
2022-10-11T00:05:03.786Z,20.55
2022-10-11T00:07:38.037Z,17.50
2022-10-11T00:10:12.993Z,16.77
2022-10-11T00:12:52.448Z,20.35
2022-10-11T00:15:26.990Z,19.48
2022-10-11T00:18:05.218Z,13.30
2022-10-11T00:20:42.737Z,16.55
2022-10-11T00:23:17.502Z,21.60
2022-10-11T00:26:00.031Z,17.75
2022-10-11T00:28:37.796Z,17.92
2022-10-11T00:31:13.324Z,26.55
2022-10-11T00:33:47.481Z,24.60
2022-10-11T00:36:21.456Z,26.10
2022-10-11T00:38:55.069Z,23.45
2022-10-11T00:41:29.503Z,30.80
2022-10-11T00:44:19.195Z,41.95
2022-10-11T00:46:56.060Z,30.63
2022-10-11T00:49:35.904Z,32.38
2022-10-11T00:52:12.158Z,35.40
2022-10-11T00:54:47.394Z,31.83
2022-10-11T00:57:21.996Z,29.37
2022-10-11T00:59:59.114Z,36.17
2022-10-11T01:02:33.328Z,30.20
2022-10-11T01:05:28.258Z,28.15
2022-10-11T01:08:03.564Z,30.77
2022-10-11T01:10:38.857Z,24.50
2022-10-11T01:13:24.219Z,27.63
2022-10-11T01:16:03.666Z,27.45
2022-10-11T01:18:41.194Z,26.50
2022-10-11T01:21:18.587Z,25.90
2022-10-11T01:24:09.117Z,23.50
2022-10-11T01:26:42.758Z,25.10
2022-10-11T01:29:22.369Z,28.45
2022-10-11T01:32:02.063Z,22.27
2022-10-11T01:34:38.941Z,25.25
2022-10-11T01:37:16.107Z,25.95
2022-10-11T01:39:51.841Z,20.48
2022-10-11T01:42:26.481Z,21.80
2022-10-11T01:45:00.426Z,19.95
2022-10-11T01:47:37.080Z,17.35
2022-10-11T01:50:34.169Z,26.92
2022-10-11T01:53:07.687Z,19.05
2022-10-11T01:55:44.799Z,15.05
2022-10-11T01:58:21.535Z,20.90
2022-10-11T02:00:58.522Z,20.10
2022-10-11T02:03:37.012Z,24.48
2022-10-11T02:06:13.080Z,19.98
2022-10-11T02:11:23.867Z,27.80
2022-10-11T02:14:00.555Z,24.60
2022-10-11T02:16:38.397Z,24.83
2022-10-11T02:19:15.645Z,21.88
2022-10-11T02:21:49.608Z,22.02
2022-10-11T02:24:27.430Z,20.50
2022-10-11T02:27:02.003Z,26.43
2022-10-11T02:29:37.392Z,24.05
2022-10-11T02:32:11.504Z,22.60
2022-10-11T02:34:50.769Z,24.70
2022-10-11T02:37:28.122Z,20.20
2022-10-11T02:40:04.802Z,18.55
2022-10-11T02:42:40.276Z,21.67
2022-10-11T02:45:16.382Z,21.95
2022-10-11T02:50:26.344Z,19.00
2022-10-11T02:53:00.080Z,15.40
2022-10-11T02:55:34.160Z,15.35
2022-10-11T02:58:08.445Z,17.35
2022-10-11T03:00:42.186Z,13.80
2022-10-11T03:03:16.295Z,13.40
2022-10-11T03:05:53.111Z,13.70
2022-10-11T03:08:27.176Z,11.43
2022-10-11T03:10:59.184Z,22.80
2022-10-11T03:13:33.857Z,16.50
2022-10-11T03:16:08.708Z,14.45
2022-10-11T03:18:43.643Z,13.68
2022-10-11T03:21:21.550Z,14.50
2022-10-11T03:23:55.212Z,14.52
2022-10-11T03:26:29.118Z,11.38
2022-10-11T03:29:03.186Z,17.50
2022-10-11T03:31:37.467Z,14.35
2022-10-11T03:34:11.377Z,15.02
2022-10-11T03:36:48.799Z,11.65
2022-10-11T03:39:23.213Z,12.85
2022-10-11T03:41:57.424Z,14.90
2022-10-11T03:44:31.278Z,18.70
2022-10-11T03:47:05.228Z,14.00
2022-10-11T03:49:43.418Z,16.73
2022-10-11T03:52:21.067Z,20.00
2022-10-11T03:54:55.162Z,13.00
2022-10-11T03:57:29.215Z,17.25
2022-10-11T04:00:03.387Z,9.88
2022-10-11T04:02:39.405Z,14.85
2022-10-11T04:05:13.194Z,8.85
2022-10-11T04:07:49.628Z,10.38
2022-10-11T04:10:24.084Z,11.30
2022-10-11T04:12:58.399Z,11.63
2022-10-11T04:15:32.498Z,14.75
2022-10-11T04:18:06.694Z,23.50
2022-10-11T04:20:41.776Z,12.10
2022-10-11T04:23:17.540Z,10.73
2022-10-11T04:25:51.756Z,8.75
2022-10-11T04:28:24.798Z,11.50
2022-10-11T04:30:59.523Z,13.57
2022-10-11T04:33:33.782Z,12.10
2022-10-11T04:36:09.395Z,10.02
2022-10-11T04:38:47.619Z,11.85
2022-10-11T04:41:22.162Z,8.98
2022-10-11T04:43:56.520Z,10.05
2022-10-11T04:46:30.346Z,13.10
2022-10-11T04:49:04.556Z,13.68
2022-10-11T04:51:38.717Z,14.00
2022-10-11T04:54:15.966Z,15.30
2022-10-11T04:56:50.493Z,22.98
2022-10-11T04:59:26.296Z,19.90
2022-10-11T05:02:00.531Z,19.15
2022-10-11T05:04:34.391Z,16.80
2022-10-11T05:07:08.638Z,12.68
2022-10-11T05:09:46.409Z,17.55
2022-10-11T05:12:20.384Z,9.95
2022-10-11T05:14:55.791Z,15.30
2022-10-11T05:17:31.150Z,13.95
2022-10-11T05:20:06.089Z,14.80
2022-10-11T05:22:40.911Z,14.55
2022-10-11T05:25:18.754Z,25.30
2022-10-11T05:27:53.908Z,24.00
2022-10-11T05:30:28.243Z,18.60
2022-10-11T05:33:02.609Z,27.48
2022-10-11T05:35:39.032Z,24.48
2022-10-11T05:38:14.269Z,18.90
2022-10-11T05:40:54.659Z,32.80
2022-10-11T05:43:29.368Z,21.20
2022-10-11T05:46:04.188Z,22.50
2022-10-11T05:48:38.258Z,19.27
2022-10-11T05:51:12.798Z,20.40
2022-10-11T05:53:50.431Z,18.20
2022-10-11T05:56:28.832Z,15.30
2022-10-11T05:59:03.436Z,15.70
2022-10-11T06:01:40.516Z,19.10
2022-10-11T06:04:17.007Z,14.70
2022-10-11T06:06:52.895Z,16.55
2022-10-11T06:09:27.848Z,20.77
2022-10-11T06:12:05.249Z,15.70
2022-10-11T06:14:39.954Z,14.13
2022-10-11T06:17:15.210Z,13.30
2022-10-11T06:19:49.605Z,12.70
2022-10-11T06:22:24.177Z,12.25
2022-10-11T06:24:59.880Z,16.83
2022-10-11T06:27:38.612Z,14.95
2022-10-11T06:30:15.353Z,15.02
2022-10-11T06:32:53.003Z,16.58
2022-10-11T06:35:28.310Z,16.60
2022-10-11T06:38:04.136Z,13.02
2022-10-11T06:40:43.279Z,12.50
2022-10-11T06:43:20.262Z,10.90
2022-10-11T06:45:54.628Z,11.70
2022-10-11T06:48:31.744Z,9.85
2022-10-11T06:51:09.295Z,12.35
2022-10-11T06:53:43.596Z,8.90
2022-10-11T06:56:20.136Z,8.80
2022-10-11T06:58:59.645Z,8.82
2022-10-11T07:01:39.208Z,7.35
2022-10-11T07:04:13.903Z,8.45
2022-10-11T07:06:52.956Z,6.50
2022-10-11T07:09:28.531Z,9.90
2022-10-11T07:12:04.144Z,10.80
2022-10-11T07:14:42.893Z,11.57
2022-10-11T07:17:20.249Z,5.53
2022-10-11T07:19:54.812Z,10.52
2022-10-11T07:22:29.902Z,13.05
2022-10-11T07:25:09.178Z,7.25
2022-10-11T07:27:46.712Z,4.45
2022-10-11T07:30:28.153Z,7.43
2022-10-11T07:33:04.696Z,7.50
2022-10-11T07:35:39.599Z,8.75
2022-10-11T07:38:15.663Z,8.20
2022-10-11T07:40:53.592Z,5.67
2022-10-11T07:43:30.174Z,5.85
2022-10-11T07:46:08.807Z,7.72
2022-10-11T07:48:41.895Z,5.80
2022-10-11T07:51:18.199Z,7.55
2022-10-11T07:53:54.181Z,7.75
2022-10-11T07:56:30.158Z,7.50
2022-10-11T07:59:08.459Z,6.22
2022-10-11T08:01:46.071Z,7.55
2022-10-11T08:04:21.711Z,7.78
2022-10-11T08:09:31.475Z,6.10
2022-10-11T08:12:07.778Z,10.15
2022-10-11T08:14:44.968Z,6.90
2022-10-11T08:17:23.065Z,6.72
2022-10-11T08:19:58.463Z,8.32
2022-10-11T08:22:35.600Z,12.18
2022-10-11T08:25:11.714Z,7.10
2022-10-11T08:27:47.049Z,4.20
2022-10-11T08:30:23.442Z,6.40
2022-10-11T08:32:55.879Z,11.87
2022-10-11T08:35:33.501Z,10.13
2022-10-11T08:38:10.483Z,5.15
2022-10-11T08:40:51.286Z,10.35
2022-10-11T08:43:33.093Z,7.90
2022-10-11T08:46:09.213Z,9.83
2022-10-11T08:48:45.035Z,6.20
2022-10-11T08:51:24.581Z,5.10
2022-10-11T08:54:06.423Z,4.65
2022-10-11T08:56:43.591Z,4.43
2022-10-11T08:59:28.333Z,9.60
2022-10-11T09:02:06.921Z,6.05
2022-10-11T09:04:42.437Z,9.80
2022-10-11T09:07:22.268Z,3.50
2022-10-11T09:10:05.343Z,7.47
2022-10-11T09:12:44.967Z,3.53
2022-10-11T09:15:23.040Z,4.70
2022-10-11T09:18:33.486Z,3.83
2022-10-11T09:21:19.989Z,6.55
2022-10-11T09:24:18.156Z,16.23
2022-10-11T09:26:59.771Z,8.40
2022-10-11T09:29:45.593Z,8.80
2022-10-11T09:32:21.690Z,4.93
2022-10-11T09:34:59.306Z,7.60
2022-10-11T09:37:36.016Z,4.70
2022-10-11T09:40:22.733Z,6.97
2022-10-11T09:43:00.177Z,8.00
2022-10-11T09:45:35.967Z,4.57
2022-10-11T09:48:10.528Z,7.35
2022-10-11T09:50:51.327Z,5.75
2022-10-11T09:53:27.458Z,6.95
2022-10-11T09:56:09.824Z,4.55
2022-10-11T09:58:45.924Z,6.90
2022-10-11T10:04:09.654Z,5.40
2022-10-11T10:06:46.449Z,3.60
2022-10-11T10:09:28.030Z,8.63
2022-10-11T10:12:06.991Z,6.20
2022-10-11T10:14:42.604Z,6.05
2022-10-11T10:17:19.384Z,7.57
2022-10-11T10:19:55.337Z,5.72
2022-10-11T10:22:36.847Z,6.05
2022-10-11T10:25:14.842Z,6.30
2022-10-11T10:27:59.150Z,6.50
2022-10-11T10:30:35.650Z,6.10
2022-10-11T10:33:12.558Z,3.78
2022-10-11T10:35:47.545Z,5.35
2022-10-11T10:38:26.567Z,4.30
2022-10-11T10:41:02.366Z,5.45
2022-10-11T10:43:41.309Z,6.55
2022-10-11T10:46:45.218Z,6.80
2022-10-11T10:49:48.503Z,4.05
2022-10-11T10:52:30.948Z,8.27
2022-10-11T10:55:09.189Z,9.05
2022-10-11T10:57:51.008Z,8.40
2022-10-11T11:00:30.202Z,4.95
2022-10-11T11:03:15.671Z,18.55
2022-10-11T11:12:32.256Z,6.05
2022-10-11T11:15:06.937Z,7.27
2022-10-11T11:17:50.999Z,5.20
2022-10-11T11:21:02.883Z,5.33
2022-10-11T11:23:41.001Z,7.93
2022-10-11T11:26:20.272Z,10.45
2022-10-11T11:29:01.301Z,4.93
2022-10-11T11:31:59.330Z,4.95
2022-10-11T11:34:38.383Z,10.77
2022-10-11T11:37:19.468Z,9.57
2022-10-11T11:39:54.768Z,5.95
2022-10-11T11:42:32.799Z,5.63
2022-10-11T11:45:09.931Z,6.65
2022-10-11T11:47:45.734Z,8.80
2022-10-11T11:53:08.247Z,5.53
2022-10-11T11:55:48.469Z,6.40
2022-10-11T11:58:31.066Z,4.68
2022-10-11T12:01:08.905Z,6.65
2022-10-11T12:03:44.536Z,9.82
2022-10-11T12:06:32.134Z,5.30
2022-10-11T12:09:09.445Z,4.75
2022-10-11T12:11:54.672Z,5.60
2022-10-11T12:14:40.182Z,8.10
2022-10-11T12:17:19.087Z,7.45
2022-10-11T12:20:07.223Z,7.95
2022-10-11T12:22:55.317Z,3.90
2022-10-11T12:25:30.147Z,4.75
2022-10-11T12:28:22.423Z,6.72
2022-10-11T12:30:57.292Z,7.10
2022-10-11T12:33:53.233Z,11.77
2022-10-11T12:36:41.990Z,5.75
2022-10-11T12:39:53.883Z,4.95
2022-10-11T12:42:33.291Z,3.10
2022-10-11T12:45:35.772Z,10.95
2022-10-11T12:48:37.098Z,8.90
2022-10-11T12:51:26.115Z,5.63
2022-10-11T12:54:37.772Z,6.80
2022-10-11T12:57:29.374Z,5.20
2022-10-11T13:00:21.034Z,7.93
2022-10-11T13:02:56.955Z,4.28
2022-10-11T13:08:09.509Z,6.00
2022-10-11T13:10:45.525Z,6.50
2022-10-11T13:13:22.261Z,5.10
2022-10-11T13:16:03.024Z,5.05
2022-10-11T13:18:38.399Z,6.45
2022-10-11T13:21:23.189Z,3.50
2022-10-11T13:24:02.807Z,9.82
2022-10-11T13:26:37.779Z,4.45
2022-10-11T13:29:19.177Z,7.87
2022-10-11T13:31:57.143Z,8.85
2022-10-11T13:34:35.485Z,7.20
2022-10-11T13:37:11.775Z,5.03
2022-10-11T13:39:47.830Z,4.65
2022-10-11T13:42:25.166Z,7.90
2022-10-11T13:45:00.794Z,5.90
2022-10-11T13:47:41.269Z,6.20
2022-10-11T13:50:24.655Z,6.10
2022-10-11T13:53:02.401Z,10.65
2022-10-11T13:55:38.670Z,3.50
2022-10-11T13:58:18.558Z,7.80
2022-10-11T14:00:58.251Z,6.60
2022-10-11T14:03:43.934Z,7.40
2022-10-11T14:06:23.362Z,5.85
2022-10-11T14:08:59.853Z,7.55
2022-10-11T14:11:38.951Z,12.47
2022-10-11T14:14:34.292Z,7.00
2022-10-11T14:17:04.754Z,10.35
2022-10-11T14:19:43.200Z,17.52
2022-10-11T14:22:20.495Z,7.50
2022-10-11T14:24:55.626Z,24.08
2022-10-11T14:27:32.770Z,8.07
2022-10-11T14:30:27.262Z,9.03
2022-10-11T14:33:04.658Z,9.25
2022-10-11T14:35:45.425Z,6.70
2022-10-11T14:38:20.693Z,15.35
2022-10-11T14:40:56.133Z,17.30
2022-10-11T14:43:31.807Z,5.15
2022-10-11T14:46:09.366Z,12.10
2022-10-11T14:48:55.063Z,7.88
2022-10-11T14:51:36.151Z,8.13
2022-10-11T14:54:15.527Z,7.07
2022-10-11T14:56:48.889Z,5.75
2022-10-11T14:59:25.640Z,19.48
2022-10-11T15:02:01.631Z,13.20
2022-10-11T15:04:36.698Z,12.23
2022-10-11T15:07:18.480Z,10.33
2022-10-11T15:09:54.524Z,20.05
2022-10-11T15:15:09.419Z,11.48
2022-10-11T15:17:45.648Z,8.55
2022-10-11T15:20:27.157Z,7.75
2022-10-11T15:23:05.416Z,7.55
2022-10-11T15:25:41.838Z,9.75
2022-10-11T15:28:22.785Z,3.58
2022-10-11T15:30:58.698Z,7.25
2022-10-11T15:33:33.583Z,6.43
2022-10-11T15:36:09.584Z,11.82
2022-10-11T15:38:48.867Z,7.15
2022-10-11T15:41:27.535Z,5.75
2022-10-11T15:44:05.154Z,5.73
2022-10-11T15:46:41.828Z,8.32
2022-10-11T15:49:17.482Z,12.00
2022-10-11T15:51:52.787Z,10.30
2022-10-11T15:54:31.812Z,11.10
2022-10-11T15:57:08.816Z,7.10
2022-10-11T15:59:44.038Z,5.93
2022-10-11T16:02:20.176Z,10.50
2022-10-11T16:05:01.402Z,5.85
2022-10-11T16:07:36.447Z,7.80
2022-10-11T16:10:14.438Z,7.20
2022-10-11T16:12:49.252Z,13.07
2022-10-11T16:15:24.536Z,17.07
2022-10-11T16:17:59.537Z,16.47
2022-10-11T16:20:34.994Z,11.57
2022-10-11T16:23:10.182Z,12.40
2022-10-11T16:25:48.091Z,13.63
2022-10-11T16:28:24.273Z,12.80
2022-10-11T16:30:59.540Z,7.50
2022-10-11T16:33:34.418Z,14.00
2022-10-11T16:36:22.359Z,17.30
2022-10-11T16:38:58.355Z,15.38
2022-10-11T16:41:35.469Z,10.43
2022-10-11T16:44:09.896Z,15.20
2022-10-11T16:46:48.058Z,13.00
2022-10-11T16:49:25.702Z,13.88
2022-10-11T16:52:04.054Z,17.13
2022-10-11T16:54:41.836Z,13.75
2022-10-11T16:57:23.556Z,9.52
2022-10-11T16:59:57.975Z,15.70
2022-10-11T17:02:35.197Z,11.85
2022-10-11T17:05:13.203Z,14.32
2022-10-11T17:07:47.780Z,16.02
2022-10-11T17:10:39.603Z,16.98
2022-10-11T17:13:16.826Z,19.35
2022-10-11T17:15:51.945Z,22.35
2022-10-11T17:18:26.725Z,22.70
2022-10-11T17:21:05.349Z,17.95
2022-10-11T17:23:40.067Z,24.20
2022-10-11T17:26:23.458Z,20.00
2022-10-11T17:28:53.988Z,25.60
2022-10-11T17:31:31.186Z,30.75
2022-10-11T17:34:06.051Z,28.53
2022-10-11T17:36:41.252Z,32.00
2022-10-11T17:39:16.554Z,29.45
2022-10-11T17:41:51.821Z,30.20
2022-10-11T17:44:26.922Z,26.20
2022-10-11T17:47:04.188Z,28.37
2022-10-11T17:49:39.175Z,29.40
2022-10-11T17:52:13.628Z,26.45
2022-10-11T17:54:47.749Z,32.85
2022-10-11T17:57:23.229Z,32.13
2022-10-11T17:59:58.236Z,29.83
2022-10-11T18:02:35.802Z,33.10
2022-10-11T18:05:14.710Z,34.83
2022-10-11T18:07:48.639Z,37.80
2022-10-11T18:10:22.719Z,45.65
2022-10-11T18:12:58.110Z,35.65
2022-10-11T18:15:33.534Z,33.95
2022-10-11T18:18:11.992Z,34.55
2022-10-11T18:20:49.675Z,36.83
2022-10-11T18:23:24.330Z,54.13
2022-10-11T18:26:11.142Z,53.65
2022-10-11T18:28:46.694Z,43.45
2022-10-11T18:31:22.219Z,44.50
2022-10-11T18:33:58.430Z,38.25
2022-10-11T18:39:08.700Z,38.40
2022-10-11T18:41:42.562Z,33.20
2022-10-11T18:44:17.704Z,31.75
2022-10-11T18:46:54.472Z,43.03
2022-10-11T18:49:32.617Z,40.85
2022-10-11T18:52:08.607Z,53.90
2022-10-11T18:54:45.044Z,52.00
2022-10-11T18:57:21.064Z,61.50
2022-10-11T19:02:32.166Z,77.30
2022-10-11T19:05:06.278Z,89.07
2022-10-11T19:07:45.791Z,93.60
2022-10-11T19:10:21.831Z,83.20
2022-10-11T19:15:32.128Z,79.80
2022-10-11T19:18:08.123Z,88.10
2022-10-11T19:20:44.406Z,93.05
2022-10-11T19:23:24.471Z,77.13
2022-10-11T19:26:01.682Z,88.33
2022-10-11T19:28:36.538Z,74.18
2022-10-11T19:31:17.399Z,76.47
2022-10-11T19:33:51.181Z,85.22
2022-10-11T19:36:26.037Z,79.45
2022-10-11T19:39:09.155Z,91.05
2022-10-11T19:41:44.629Z,86.80
2022-10-11T19:44:21.381Z,68.70
2022-10-11T19:46:58.286Z,67.63
2022-10-11T19:49:35.839Z,83.63
2022-10-11T19:52:14.133Z,77.00
2022-10-11T19:54:54.377Z,82.00
2022-10-11T19:57:30.687Z,71.43
2022-10-11T20:00:09.022Z,71.18
2022-10-11T20:02:43.792Z,74.35
2022-10-11T20:05:20.299Z,68.72
2022-10-11T20:07:55.893Z,67.40
2022-10-11T20:10:34.617Z,73.73
2022-10-11T20:13:03.991Z,75.43
2022-10-11T20:15:41.301Z,80.00
2022-10-11T20:18:16.724Z,69.70
2022-10-11T20:20:57.613Z,80.05
2022-10-11T20:23:32.400Z,65.90
2022-10-11T20:26:11.324Z,79.72
2022-10-11T20:28:53.599Z,68.68
2022-10-11T20:31:30.367Z,72.70
2022-10-11T20:34:07.634Z,72.30
2022-10-11T20:36:46.860Z,71.50
2022-10-11T20:39:25.555Z,68.03
2022-10-11T20:42:03.327Z,68.78
2022-10-11T20:44:39.214Z,70.30
2022-10-11T20:47:18.253Z,65.80
2022-10-11T20:49:53.697Z,68.90
2022-10-11T20:52:28.984Z,72.28
2022-10-11T20:55:05.011Z,62.75
2022-10-11T20:57:43.192Z,68.47
2022-10-11T21:00:19.255Z,63.42
2022-10-11T21:05:29.820Z,72.00
2022-10-11T21:08:08.330Z,88.80
2022-10-11T21:10:42.824Z,98.90
2022-10-11T21:13:20.445Z,99.22
2022-10-11T21:15:55.817Z,93.18
2022-10-11T21:18:31.747Z,85.55
2022-10-11T21:23:44.355Z,79.93
2022-10-11T21:26:20.378Z,77.45
2022-10-11T21:28:59.508Z,82.35
2022-10-11T21:31:35.115Z,69.85
2022-10-11T21:34:11.125Z,72.63
2022-10-11T21:36:50.664Z,63.47
2022-10-11T21:39:25.337Z,86.68
2022-10-11T21:41:59.521Z,83.45
2022-10-11T21:44:37.914Z,73.25
2022-10-11T21:47:10.866Z,84.80
2022-10-11T21:49:45.878Z,72.60
2022-10-11T21:52:20.664Z,77.88
2022-10-11T21:54:57.605Z,76.90
2022-10-11T21:57:32.330Z,66.80
2022-10-11T22:00:11.584Z,75.75
2022-10-11T22:02:51.062Z,68.10
2022-10-11T22:05:25.857Z,64.75
2022-10-11T22:08:01.094Z,82.28
2022-10-11T22:10:35.234Z,80.80
2022-10-11T22:13:12.058Z,68.20
2022-10-11T22:15:51.026Z,63.15
2022-10-11T22:18:27.377Z,81.05
2022-10-11T22:21:08.652Z,68.55
2022-10-11T22:23:43.728Z,66.10
2022-10-11T22:26:20.852Z,70.40
2022-10-11T22:28:56.408Z,67.20
2022-10-11T22:31:33.765Z,68.40
2022-10-11T22:34:08.272Z,62.85
2022-10-11T22:36:43.590Z,63.40
2022-10-11T22:39:19.603Z,68.40
2022-10-11T22:41:54.241Z,67.15
2022-10-11T22:44:29.771Z,69.35
2022-10-11T22:47:07.777Z,54.30
2022-10-11T22:49:43.132Z,58.60
2022-10-11T22:52:18.605Z,53.47
2022-10-11T22:54:53.813Z,53.23
2022-10-11T22:57:28.445Z,48.17
2022-10-11T23:00:02.802Z,49.65
2022-10-11T23:02:40.401Z,52.03
2022-10-11T23:05:14.738Z,52.10
2022-10-11T23:07:50.782Z,57.88
2022-10-11T23:10:25.922Z,61.33
2022-10-11T23:13:00.796Z,62.80
2022-10-11T23:15:35.558Z,56.00
2022-10-11T23:18:12.809Z,57.08
2022-10-11T23:20:47.147Z,56.90
2022-10-11T23:23:22.387Z,52.40
2022-10-11T23:26:07.728Z,59.17
2022-10-11T23:28:42.387Z,58.43
2022-10-11T23:31:17.733Z,49.40
2022-10-11T23:33:51.911Z,57.80
2022-10-11T23:36:30.920Z,54.37
2022-10-11T23:39:06.285Z,58.38
2022-10-11T23:41:41.781Z,52.70
2022-10-11T23:44:15.949Z,48.03
2022-10-11T23:46:50.777Z,43.17
2022-10-11T23:49:25.157Z,47.22
2022-10-11T23:52:03.336Z,47.55
2022-10-11T23:54:37.929Z,54.60
2022-10-11T23:57:12.742Z,54.35
2022-10-11T23:59:48.580Z,58.53
